sensor_id;sensor_type;location;lat;lon;timestamp;temperature;humidity
7030;DHT22;3556;53.500;10.176;2024-01-25T00:00:34;7.20;1.00
7030;DHT22;3556;53.500;10.176;2024-01-25T00:02:59;7.20;1.00
7030;DHT22;3556;53.500;10.176;2024-01-25T00:05:25;7.10;1.00
7030;DHT22;3556;53.500;10.176;2024-01-25T00:07:52;7.20;1.00
7030;DHT22;3556;53.500;10.176;2024-01-25T00:10:18;7.20;1.00
7030;DHT22;3556;53.500;10.176;2024-01-25T00:12:44;7.10;2.50
7030;DHT22;3556;53.500;10.176;2024-01-25T00:15:10;7.10;10.70
7030;DHT22;3556;53.500;10.176;2024-01-25T00:17:36;7.10;11.40
7030;DHT22;3556;53.500;10.176;2024-01-25T00:20:03;7.10;28.30
7030;DHT22;3556;53.500;10.176;2024-01-25T00:22:29;7.00;61.20
7030;DHT22;3556;53.500;10.176;2024-01-25T00:24:55;7.00;70.80
7030;DHT22;3556;53.500;10.176;2024-01-25T00:27:20;7.00;84.70
7030;DHT22;3556;53.500;10.176;2024-01-25T00:29:46;7.00;99.90
7030;DHT22;3556;53.500;10.176;2024-01-25T00:32:11;6.90;99.90
7030;DHT22;3556;53.500;10.176;2024-01-25T00:34:37;7.00;99.90
7030;DHT22;3556;53.500;10.176;2024-01-25T00:37:03;6.90;99.90
7030;DHT22;3556;53.500;10.176;2024-01-25T00:39:29;6.90;99.90
7030;DHT22;3556;53.500;10.176;2024-01-25T00:42:01;6.90;99.90
7030;DHT22;3556;53.500;10.176;2024-01-25T00:44:29;6.90;99.90
7030;DHT22;3556;53.500;10.176;2024-01-25T00:46:54;6.90;99.90
7030;DHT22;3556;53.500;10.176;2024-01-25T00:49:20;6.90;99.90
7030;DHT22;3556;53.500;10.176;2024-01-25T00:51:47;6.90;99.90
7030;DHT22;3556;53.500;10.176;2024-01-25T00:54:14;7.00;99.90
7030;DHT22;3556;53.500;10.176;2024-01-25T00:56:40;7.00;99.90
7030;DHT22;3556;53.500;10.176;2024-01-25T00:59:06;7.00;99.90
7030;DHT22;3556;53.500;10.176;2024-01-25T01:01:32;7.00;99.90
7030;DHT22;3556;53.500;10.176;2024-01-25T01:03:58;7.00;99.90
7030;DHT22;3556;53.500;10.176;2024-01-25T01:06:25;7.00;99.90
7030;DHT22;3556;53.500;10.176;2024-01-25T01:08:51;7.10;99.90
7030;DHT22;3556;53.500;10.176;2024-01-25T01:11:17;7.00;98.10
7030;DHT22;3556;53.500;10.176;2024-01-25T01:13:42;7.00;99.90
7030;DHT22;3556;53.500;10.176;2024-01-25T01:16:08;7.10;99.00
7030;DHT22;3556;53.500;10.176;2024-01-25T01:18:34;7.10;95.50
7030;DHT22;3556;53.500;10.176;2024-01-25T01:20:59;7.10;99.90
7030;DHT22;3556;53.500;10.176;2024-01-25T01:23:25;7.10;99.90
7030;DHT22;3556;53.500;10.176;2024-01-25T01:25:51;7.10;86.20
7030;DHT22;3556;53.500;10.176;2024-01-25T01:28:16;7.10;82.60
7030;DHT22;3556;53.500;10.176;2024-01-25T01:30:42;7.10;80.90
7030;DHT22;3556;53.500;10.176;2024-01-25T01:33:08;7.10;92.50
7030;DHT22;3556;53.500;10.176;2024-01-25T01:35:34;7.10;99.90
7030;DHT22;3556;53.500;10.176;2024-01-25T01:38:00;7.10;92.80
7030;DHT22;3556;53.500;10.176;2024-01-25T01:40:25;7.00;95.70
7030;DHT22;3556;53.500;10.176;2024-01-25T01:42:51;7.00;93.00
7030;DHT22;3556;53.500;10.176;2024-01-25T01:45:16;7.10;95.00
7030;DHT22;3556;53.500;10.176;2024-01-25T01:47:42;7.00;90.90
7030;DHT22;3556;53.500;10.176;2024-01-25T01:50:09;7.00;99.90
7030;DHT22;3556;53.500;10.176;2024-01-25T01:52:35;7.00;99.90
7030;DHT22;3556;53.500;10.176;2024-01-25T01:55:01;6.90;99.90
7030;DHT22;3556;53.500;10.176;2024-01-25T01:57:27;6.90;99.90
7030;DHT22;3556;53.500;10.176;2024-01-25T01:59:53;6.90;99.90
7030;DHT22;3556;53.500;10.176;2024-01-25T02:02:19;7.00;99.90
7030;DHT22;3556;53.500;10.176;2024-01-25T02:04:44;7.00;99.90
7030;DHT22;3556;53.500;10.176;2024-01-25T02:07:11;7.00;99.90
7030;DHT22;3556;53.500;10.176;2024-01-25T02:09:37;7.00;99.90
7030;DHT22;3556;53.500;10.176;2024-01-25T02:12:03;7.00;99.90
7030;DHT22;3556;53.500;10.176;2024-01-25T02:14:30;7.00;99.90
7030;DHT22;3556;53.500;10.176;2024-01-25T02:16:56;7.00;99.90
7030;DHT22;3556;53.500;10.176;2024-01-25T02:19:21;7.00;99.90
7030;DHT22;3556;53.500;10.176;2024-01-25T02:21:47;7.00;99.90
7030;DHT22;3556;53.500;10.176;2024-01-25T02:24:13;7.00;99.90
7030;DHT22;3556;53.500;10.176;2024-01-25T02:26:39;7.00;99.90
7030;DHT22;3556;53.500;10.176;2024-01-25T02:29:05;7.00;99.90
7030;DHT22;3556;53.500;10.176;2024-01-25T02:31:32;7.00;99.90
7030;DHT22;3556;53.500;10.176;2024-01-25T02:33:58;7.00;99.90
7030;DHT22;3556;53.500;10.176;2024-01-25T02:36:24;7.00;99.90
7030;DHT22;3556;53.500;10.176;2024-01-25T02:38:49;7.00;99.90
7030;DHT22;3556;53.500;10.176;2024-01-25T02:41:15;7.00;99.90
7030;DHT22;3556;53.500;10.176;2024-01-25T02:43:41;6.90;99.90
7030;DHT22;3556;53.500;10.176;2024-01-25T02:46:07;6.90;99.90
7030;DHT22;3556;53.500;10.176;2024-01-25T02:48:34;7.00;99.90
7030;DHT22;3556;53.500;10.176;2024-01-25T02:50:59;7.00;99.90
7030;DHT22;3556;53.500;10.176;2024-01-25T02:53:25;6.90;99.90
7030;DHT22;3556;53.500;10.176;2024-01-25T02:55:51;6.90;99.90
7030;DHT22;3556;53.500;10.176;2024-01-25T02:58:16;7.00;99.90
7030;DHT22;3556;53.500;10.176;2024-01-25T03:00:42;6.90;99.90
7030;DHT22;3556;53.500;10.176;2024-01-25T03:03:08;6.90;99.90
7030;DHT22;3556;53.500;10.176;2024-01-25T03:05:33;6.90;99.90
7030;DHT22;3556;53.500;10.176;2024-01-25T03:08:00;6.90;99.90
7030;DHT22;3556;53.500;10.176;2024-01-25T03:10:25;7.00;99.90
7030;DHT22;3556;53.500;10.176;2024-01-25T03:12:51;6.90;99.90
7030;DHT22;3556;53.500;10.176;2024-01-25T03:15:17;7.00;99.90
7030;DHT22;3556;53.500;10.176;2024-01-25T03:17:42;7.10;99.90
7030;DHT22;3556;53.500;10.176;2024-01-25T03:20:09;7.10;99.90
7030;DHT22;3556;53.500;10.176;2024-01-25T03:22:35;7.10;99.90
7030;DHT22;3556;53.500;10.176;2024-01-25T03:25:00;7.10;99.90
7030;DHT22;3556;53.500;10.176;2024-01-25T03:27:26;7.10;99.90
7030;DHT22;3556;53.500;10.176;2024-01-25T03:29:52;7.10;99.90
7030;DHT22;3556;53.500;10.176;2024-01-25T03:32:17;7.10;99.90
7030;DHT22;3556;53.500;10.176;2024-01-25T03:34:43;7.10;99.90
7030;DHT22;3556;53.500;10.176;2024-01-25T03:37:08;7.10;99.90
7030;DHT22;3556;53.500;10.176;2024-01-25T03:39:34;7.00;99.90
7030;DHT22;3556;53.500;10.176;2024-01-25T03:42:00;7.00;99.90
7030;DHT22;3556;53.500;10.176;2024-01-25T03:44:25;7.00;99.90
7030;DHT22;3556;53.500;10.176;2024-01-25T03:46:51;7.00;99.90
7030;DHT22;3556;53.500;10.176;2024-01-25T03:49:16;7.10;99.90
7030;DHT22;3556;53.500;10.176;2024-01-25T03:51:42;7.10;99.90
7030;DHT22;3556;53.500;10.176;2024-01-25T03:54:08;7.10;99.90
7030;DHT22;3556;53.500;10.176;2024-01-25T03:56:33;7.10;99.90
7030;DHT22;3556;53.500;10.176;2024-01-25T03:58:59;7.10;99.90
7030;DHT22;3556;53.500;10.176;2024-01-25T04:01:25;7.10;99.90
7030;DHT22;3556;53.500;10.176;2024-01-25T04:03:50;7.10;99.90
7030;DHT22;3556;53.500;10.176;2024-01-25T04:06:16;7.10;99.90
7030;DHT22;3556;53.500;10.176;2024-01-25T04:08:41;7.10;99.90
7030;DHT22;3556;53.500;10.176;2024-01-25T04:11:07;7.10;99.90
7030;DHT22;3556;53.500;10.176;2024-01-25T04:13:35;7.10;99.90
7030;DHT22;3556;53.500;10.176;2024-01-25T04:16:00;7.10;99.90
7030;DHT22;3556;53.500;10.176;2024-01-25T04:18:26;7.10;99.90
7030;DHT22;3556;53.500;10.176;2024-01-25T04:20:52;7.20;99.90
7030;DHT22;3556;53.500;10.176;2024-01-25T04:23:17;7.20;99.90
7030;DHT22;3556;53.500;10.176;2024-01-25T04:25:43;7.30;85.50
7030;DHT22;3556;53.500;10.176;2024-01-25T04:28:09;7.30;86.40
7030;DHT22;3556;53.500;10.176;2024-01-25T04:30:35;7.30;70.40
7030;DHT22;3556;53.500;10.176;2024-01-25T04:33:01;7.30;65.40
7030;DHT22;3556;53.500;10.176;2024-01-25T04:35:27;7.30;63.40
7030;DHT22;3556;53.500;10.176;2024-01-25T04:37:52;7.30;41.20
7030;DHT22;3556;53.500;10.176;2024-01-25T04:40:18;7.30;22.70
7030;DHT22;3556;53.500;10.176;2024-01-25T04:42:44;7.30;45.10
7030;DHT22;3556;53.500;10.176;2024-01-25T04:45:10;7.30;25.70
7030;DHT22;3556;53.500;10.176;2024-01-25T04:47:37;7.30;37.10
7030;DHT22;3556;53.500;10.176;2024-01-25T04:50:04;7.30;41.40
7030;DHT22;3556;53.500;10.176;2024-01-25T04:52:30;7.30;66.50
7030;DHT22;3556;53.500;10.176;2024-01-25T04:54:55;7.30;88.90
7030;DHT22;3556;53.500;10.176;2024-01-25T04:57:21;7.20;99.90
7030;DHT22;3556;53.500;10.176;2024-01-25T04:59:46;7.20;99.90
7030;DHT22;3556;53.500;10.176;2024-01-25T05:02:12;7.20;99.90
7030;DHT22;3556;53.500;10.176;2024-01-25T05:04:37;7.20;99.90
7030;DHT22;3556;53.500;10.176;2024-01-25T05:07:03;7.20;99.90
7030;DHT22;3556;53.500;10.176;2024-01-25T05:09:29;7.20;99.90
7030;DHT22;3556;53.500;10.176;2024-01-25T05:11:54;7.20;99.90
7030;DHT22;3556;53.500;10.176;2024-01-25T05:14:24;7.20;99.90
7030;DHT22;3556;53.500;10.176;2024-01-25T05:16:50;7.20;99.90
7030;DHT22;3556;53.500;10.176;2024-01-25T05:19:15;7.20;99.90
7030;DHT22;3556;53.500;10.176;2024-01-25T05:21:41;7.20;99.90
7030;DHT22;3556;53.500;10.176;2024-01-25T05:24:06;7.20;99.90
7030;DHT22;3556;53.500;10.176;2024-01-25T05:26:33;7.20;99.90
7030;DHT22;3556;53.500;10.176;2024-01-25T05:28:58;7.20;99.90
7030;DHT22;3556;53.500;10.176;2024-01-25T05:31:24;7.20;99.90
7030;DHT22;3556;53.500;10.176;2024-01-25T05:33:49;7.20;99.90
7030;DHT22;3556;53.500;10.176;2024-01-25T05:36:15;7.20;99.90
7030;DHT22;3556;53.500;10.176;2024-01-25T05:38:41;7.20;99.90
7030;DHT22;3556;53.500;10.176;2024-01-25T05:41:06;7.20;99.90
7030;DHT22;3556;53.500;10.176;2024-01-25T05:43:33;7.10;99.90
7030;DHT22;3556;53.500;10.176;2024-01-25T05:45:59;7.10;99.90
7030;DHT22;3556;53.500;10.176;2024-01-25T05:48:24;7.10;99.90
7030;DHT22;3556;53.500;10.176;2024-01-25T05:50:50;7.10;99.90
7030;DHT22;3556;53.500;10.176;2024-01-25T05:53:16;7.10;99.90
7030;DHT22;3556;53.500;10.176;2024-01-25T05:55:44;7.10;99.90
7030;DHT22;3556;53.500;10.176;2024-01-25T05:58:10;7.10;99.90
7030;DHT22;3556;53.500;10.176;2024-01-25T06:00:35;7.10;99.90
7030;DHT22;3556;53.500;10.176;2024-01-25T06:03:01;7.10;99.90
7030;DHT22;3556;53.500;10.176;2024-01-25T06:05:27;7.10;99.90
7030;DHT22;3556;53.500;10.176;2024-01-25T06:07:52;7.10;99.90
7030;DHT22;3556;53.500;10.176;2024-01-25T06:10:18;7.10;99.90
7030;DHT22;3556;53.500;10.176;2024-01-25T06:12:43;7.10;99.90
7030;DHT22;3556;53.500;10.176;2024-01-25T06:15:09;7.10;99.90
7030;DHT22;3556;53.500;10.176;2024-01-25T06:17:35;7.10;99.90
7030;DHT22;3556;53.500;10.176;2024-01-25T06:20:01;7.10;99.90
7030;DHT22;3556;53.500;10.176;2024-01-25T06:22:28;7.10;99.90
7030;DHT22;3556;53.500;10.176;2024-01-25T06:24:53;7.10;99.90
7030;DHT22;3556;53.500;10.176;2024-01-25T06:27:19;7.10;99.90
7030;DHT22;3556;53.500;10.176;2024-01-25T06:29:44;7.10;99.90
7030;DHT22;3556;53.500;10.176;2024-01-25T06:32:10;7.10;99.90
7030;DHT22;3556;53.500;10.176;2024-01-25T06:34:36;7.10;99.90
7030;DHT22;3556;53.500;10.176;2024-01-25T06:37:01;7.10;99.90
7030;DHT22;3556;53.500;10.176;2024-01-25T06:39:27;7.10;99.90
7030;DHT22;3556;53.500;10.176;2024-01-25T06:41:53;7.10;99.90
7030;DHT22;3556;53.500;10.176;2024-01-25T06:44:18;7.10;99.90
7030;DHT22;3556;53.500;10.176;2024-01-25T06:46:44;7.10;99.90
7030;DHT22;3556;53.500;10.176;2024-01-25T06:49:10;7.10;99.90
7030;DHT22;3556;53.500;10.176;2024-01-25T06:51:35;7.10;99.90
7030;DHT22;3556;53.500;10.176;2024-01-25T06:54:01;7.10;99.90
7030;DHT22;3556;53.500;10.176;2024-01-25T06:56:26;7.10;99.90
7030;DHT22;3556;53.500;10.176;2024-01-25T06:58:52;7.10;99.90
7030;DHT22;3556;53.500;10.176;2024-01-25T07:01:21;7.10;99.90
7030;DHT22;3556;53.500;10.176;2024-01-25T07:03:48;7.10;99.90
7030;DHT22;3556;53.500;10.176;2024-01-25T07:06:16;7.10;99.90
7030;DHT22;3556;53.500;10.176;2024-01-25T07:08:42;7.10;99.90
7030;DHT22;3556;53.500;10.176;2024-01-25T07:11:08;7.10;99.90
7030;DHT22;3556;53.500;10.176;2024-01-25T07:13:33;7.10;99.90
7030;DHT22;3556;53.500;10.176;2024-01-25T07:15:59;7.10;99.90
7030;DHT22;3556;53.500;10.176;2024-01-25T07:18:24;7.10;99.90
7030;DHT22;3556;53.500;10.176;2024-01-25T07:20:50;7.10;99.90
7030;DHT22;3556;53.500;10.176;2024-01-25T07:23:17;7.00;99.90
7030;DHT22;3556;53.500;10.176;2024-01-25T07:25:42;7.00;99.90
7030;DHT22;3556;53.500;10.176;2024-01-25T07:28:08;7.00;99.90
7030;DHT22;3556;53.500;10.176;2024-01-25T07:30:33;6.90;99.90
7030;DHT22;3556;53.500;10.176;2024-01-25T07:32:59;6.90;99.90
7030;DHT22;3556;53.500;10.176;2024-01-25T07:35:25;6.80;99.90
7030;DHT22;3556;53.500;10.176;2024-01-25T07:37:50;6.80;99.90
7030;DHT22;3556;53.500;10.176;2024-01-25T07:40:16;6.70;99.90
7030;DHT22;3556;53.500;10.176;2024-01-25T07:42:42;6.70;99.90
7030;DHT22;3556;53.500;10.176;2024-01-25T07:45:08;6.70;99.90
7030;DHT22;3556;53.500;10.176;2024-01-25T07:47:34;6.70;99.90
7030;DHT22;3556;53.500;10.176;2024-01-25T07:50:00;6.70;99.90
7030;DHT22;3556;53.500;10.176;2024-01-25T07:52:26;6.70;99.90
7030;DHT22;3556;53.500;10.176;2024-01-25T07:54:51;6.70;99.90
7030;DHT22;3556;53.500;10.176;2024-01-25T07:57:19;6.60;99.90
7030;DHT22;3556;53.500;10.176;2024-01-25T07:59:45;6.60;99.90
7030;DHT22;3556;53.500;10.176;2024-01-25T08:02:10;6.70;99.90
7030;DHT22;3556;53.500;10.176;2024-01-25T08:04:36;6.60;99.90
7030;DHT22;3556;53.500;10.176;2024-01-25T08:07:02;6.60;99.90
7030;DHT22;3556;53.500;10.176;2024-01-25T08:09:28;6.60;99.90
7030;DHT22;3556;53.500;10.176;2024-01-25T08:11:53;6.60;99.90
7030;DHT22;3556;53.500;10.176;2024-01-25T08:14:19;6.70;99.90
7030;DHT22;3556;53.500;10.176;2024-01-25T08:16:44;6.70;99.90
7030;DHT22;3556;53.500;10.176;2024-01-25T08:19:10;6.70;99.90
7030;DHT22;3556;53.500;10.176;2024-01-25T08:21:36;6.70;99.90
7030;DHT22;3556;53.500;10.176;2024-01-25T08:24:02;6.70;99.90
7030;DHT22;3556;53.500;10.176;2024-01-25T08:26:28;6.70;99.90
7030;DHT22;3556;53.500;10.176;2024-01-25T08:28:53;6.70;99.90
7030;DHT22;3556;53.500;10.176;2024-01-25T08:31:19;6.80;99.90
7030;DHT22;3556;53.500;10.176;2024-01-25T08:33:44;6.70;99.90
7030;DHT22;3556;53.500;10.176;2024-01-25T08:36:13;6.70;99.90
7030;DHT22;3556;53.500;10.176;2024-01-25T08:38:42;6.80;99.90
7030;DHT22;3556;53.500;10.176;2024-01-25T08:41:07;6.80;99.90
7030;DHT22;3556;53.500;10.176;2024-01-25T08:43:33;6.80;99.90
7030;DHT22;3556;53.500;10.176;2024-01-25T08:46:00;6.90;99.90
7030;DHT22;3556;53.500;10.176;2024-01-25T08:48:26;6.90;99.90
7030;DHT22;3556;53.500;10.176;2024-01-25T08:50:51;6.90;99.90
7030;DHT22;3556;53.500;10.176;2024-01-25T08:53:19;6.90;99.90
7030;DHT22;3556;53.500;10.176;2024-01-25T08:55:47;7.00;99.90
7030;DHT22;3556;53.500;10.176;2024-01-25T08:58:13;7.00;99.90
7030;DHT22;3556;53.500;10.176;2024-01-25T09:00:38;7.10;99.90
7030;DHT22;3556;53.500;10.176;2024-01-25T09:03:04;7.10;99.90
7030;DHT22;3556;53.500;10.176;2024-01-25T09:05:29;7.10;99.90
7030;DHT22;3556;53.500;10.176;2024-01-25T09:07:56;7.10;99.90
7030;DHT22;3556;53.500;10.176;2024-01-25T09:10:22;7.10;99.90
7030;DHT22;3556;53.500;10.176;2024-01-25T09:12:48;7.10;99.90
7030;DHT22;3556;53.500;10.176;2024-01-25T09:15:14;7.20;99.90
7030;DHT22;3556;53.500;10.176;2024-01-25T09:17:39;7.20;99.90
7030;DHT22;3556;53.500;10.176;2024-01-25T09:20:06;7.20;99.90
7030;DHT22;3556;53.500;10.176;2024-01-25T09:22:32;7.20;99.90
7030;DHT22;3556;53.500;10.176;2024-01-25T09:24:58;7.20;99.90
7030;DHT22;3556;53.500;10.176;2024-01-25T09:27:23;7.20;99.90
7030;DHT22;3556;53.500;10.176;2024-01-25T09:29:49;7.20;99.90
7030;DHT22;3556;53.500;10.176;2024-01-25T09:32:14;7.30;99.90
7030;DHT22;3556;53.500;10.176;2024-01-25T09:34:40;7.20;99.90
7030;DHT22;3556;53.500;10.176;2024-01-25T09:37:05;7.20;99.90
7030;DHT22;3556;53.500;10.176;2024-01-25T09:39:32;7.20;99.90
7030;DHT22;3556;53.500;10.176;2024-01-25T09:41:58;7.20;99.90
7030;DHT22;3556;53.500;10.176;2024-01-25T09:44:24;7.20;99.90
7030;DHT22;3556;53.500;10.176;2024-01-25T09:46:51;7.20;99.90
7030;DHT22;3556;53.500;10.176;2024-01-25T09:49:17;7.20;99.90
7030;DHT22;3556;53.500;10.176;2024-01-25T09:51:43;7.30;99.90
7030;DHT22;3556;53.500;10.176;2024-01-25T09:54:10;7.20;99.90
7030;DHT22;3556;53.500;10.176;2024-01-25T09:56:36;7.20;99.90
7030;DHT22;3556;53.500;10.176;2024-01-25T09:59:02;7.20;99.90
7030;DHT22;3556;53.500;10.176;2024-01-25T10:01:28;7.30;99.90
7030;DHT22;3556;53.500;10.176;2024-01-25T10:03:54;7.30;99.90
7030;DHT22;3556;53.500;10.176;2024-01-25T10:06:22;7.30;99.90
7030;DHT22;3556;53.500;10.176;2024-01-25T10:08:48;7.30;99.90
7030;DHT22;3556;53.500;10.176;2024-01-25T10:11:14;7.30;99.90
7030;DHT22;3556;53.500;10.176;2024-01-25T10:13:44;7.30;99.90
7030;DHT22;3556;53.500;10.176;2024-01-25T10:16:14;7.20;99.90
7030;DHT22;3556;53.500;10.176;2024-01-25T10:18:45;7.30;99.90
7030;DHT22;3556;53.500;10.176;2024-01-25T10:21:11;7.30;99.90
7030;DHT22;3556;53.500;10.176;2024-01-25T10:23:38;7.30;99.90
7030;DHT22;3556;53.500;10.176;2024-01-25T10:26:03;7.30;99.90
7030;DHT22;3556;53.500;10.176;2024-01-25T10:28:29;7.30;99.90
7030;DHT22;3556;53.500;10.176;2024-01-25T10:30:59;7.30;99.90
7030;DHT22;3556;53.500;10.176;2024-01-25T10:33:26;7.20;99.90
7030;DHT22;3556;53.500;10.176;2024-01-25T10:35:54;7.30;99.90
7030;DHT22;3556;53.500;10.176;2024-01-25T10:38:21;7.30;99.90
7030;DHT22;3556;53.500;10.176;2024-01-25T10:40:47;7.30;99.90
7030;DHT22;3556;53.500;10.176;2024-01-25T10:43:13;7.30;99.90
7030;DHT22;3556;53.500;10.176;2024-01-25T10:45:39;7.30;99.90
7030;DHT22;3556;53.500;10.176;2024-01-25T10:48:06;7.30;99.90
7030;DHT22;3556;53.500;10.176;2024-01-25T10:50:32;7.30;99.90
7030;DHT22;3556;53.500;10.176;2024-01-25T10:52:58;7.30;99.90
7030;DHT22;3556;53.500;10.176;2024-01-25T10:55:25;7.30;99.90
7030;DHT22;3556;53.500;10.176;2024-01-25T10:57:52;7.30;99.90
7030;DHT22;3556;53.500;10.176;2024-01-25T11:00:18;7.40;99.90
7030;DHT22;3556;53.500;10.176;2024-01-25T11:02:44;7.40;99.90
7030;DHT22;3556;53.500;10.176;2024-01-25T11:05:15;7.40;99.90
7030;DHT22;3556;53.500;10.176;2024-01-25T11:07:48;7.40;99.90
7030;DHT22;3556;53.500;10.176;2024-01-25T11:10:16;7.40;99.90
7030;DHT22;3556;53.500;10.176;2024-01-25T11:12:56;7.40;99.90
7030;DHT22;3556;53.500;10.176;2024-01-25T11:15:23;7.40;99.90
7030;DHT22;3556;53.500;10.176;2024-01-25T11:17:53;7.40;99.90
7030;DHT22;3556;53.500;10.176;2024-01-25T11:20:24;7.40;99.90
7030;DHT22;3556;53.500;10.176;2024-01-25T11:23:02;7.50;99.90
7030;DHT22;3556;53.500;10.176;2024-01-25T11:25:32;7.50;99.90
7030;DHT22;3556;53.500;10.176;2024-01-25T11:27:59;7.50;99.90
7030;DHT22;3556;53.500;10.176;2024-01-25T11:30:27;7.50;99.90
7030;DHT22;3556;53.500;10.176;2024-01-25T11:32:53;7.50;99.90
7030;DHT22;3556;53.500;10.176;2024-01-25T11:35:19;7.50;99.90
7030;DHT22;3556;53.500;10.176;2024-01-25T11:37:46;7.60;99.90
7030;DHT22;3556;53.500;10.176;2024-01-25T11:40:13;7.60;99.90
7030;DHT22;3556;53.500;10.176;2024-01-25T11:42:41;7.50;99.90
7030;DHT22;3556;53.500;10.176;2024-01-25T11:45:11;7.50;99.90
7030;DHT22;3556;53.500;10.176;2024-01-25T11:47:38;7.50;99.90
7030;DHT22;3556;53.500;10.176;2024-01-25T11:50:05;7.40;99.90
7030;DHT22;3556;53.500;10.176;2024-01-25T11:52:31;7.40;99.90
7030;DHT22;3556;53.500;10.176;2024-01-25T11:55:06;7.50;99.90
7030;DHT22;3556;53.500;10.176;2024-01-25T11:57:35;7.40;99.90
7030;DHT22;3556;53.500;10.176;2024-01-25T12:00:03;7.40;99.90
7030;DHT22;3556;53.500;10.176;2024-01-25T12:02:30;7.40;99.90
7030;DHT22;3556;53.500;10.176;2024-01-25T12:04:57;7.40;99.90
7030;DHT22;3556;53.500;10.176;2024-01-25T12:07:23;7.40;99.90
7030;DHT22;3556;53.500;10.176;2024-01-25T12:10:03;7.40;99.90
7030;DHT22;3556;53.500;10.176;2024-01-25T12:12:29;7.50;99.90
7030;DHT22;3556;53.500;10.176;2024-01-25T12:14:59;7.40;99.90
7030;DHT22;3556;53.500;10.176;2024-01-25T12:17:28;7.50;99.90
7030;DHT22;3556;53.500;10.176;2024-01-25T12:19:58;7.50;99.90
7030;DHT22;3556;53.500;10.176;2024-01-25T12:22:28;7.50;99.90
7030;DHT22;3556;53.500;10.176;2024-01-25T12:24:55;7.50;99.90
7030;DHT22;3556;53.500;10.176;2024-01-25T12:27:21;7.50;99.90
7030;DHT22;3556;53.500;10.176;2024-01-25T12:29:48;7.50;99.90
7030;DHT22;3556;53.500;10.176;2024-01-25T12:32:13;7.50;99.90
7030;DHT22;3556;53.500;10.176;2024-01-25T12:34:39;7.40;99.90
7030;DHT22;3556;53.500;10.176;2024-01-25T12:37:06;7.40;99.90
7030;DHT22;3556;53.500;10.176;2024-01-25T12:39:32;7.40;99.90
7030;DHT22;3556;53.500;10.176;2024-01-25T12:41:58;7.40;99.90
7030;DHT22;3556;53.500;10.176;2024-01-25T12:44:24;7.40;99.90
7030;DHT22;3556;53.500;10.176;2024-01-25T12:46:50;7.40;99.90
7030;DHT22;3556;53.500;10.176;2024-01-25T12:49:15;7.40;99.90
7030;DHT22;3556;53.500;10.176;2024-01-25T12:51:41;7.40;99.90
7030;DHT22;3556;53.500;10.176;2024-01-25T12:54:07;7.40;99.90
7030;DHT22;3556;53.500;10.176;2024-01-25T12:56:33;7.40;99.90
7030;DHT22;3556;53.500;10.176;2024-01-25T12:58:58;7.40;99.90
7030;DHT22;3556;53.500;10.176;2024-01-25T13:01:24;7.40;99.90
7030;DHT22;3556;53.500;10.176;2024-01-25T13:03:50;7.40;99.90
7030;DHT22;3556;53.500;10.176;2024-01-25T13:06:15;7.40;99.90
7030;DHT22;3556;53.500;10.176;2024-01-25T13:08:41;7.40;99.90
7030;DHT22;3556;53.500;10.176;2024-01-25T13:11:07;7.40;99.90
7030;DHT22;3556;53.500;10.176;2024-01-25T13:13:32;7.40;99.90
7030;DHT22;3556;53.500;10.176;2024-01-25T13:15:58;7.40;99.90
7030;DHT22;3556;53.500;10.176;2024-01-25T13:18:24;7.40;99.90
7030;DHT22;3556;53.500;10.176;2024-01-25T13:20:49;7.40;99.90
7030;DHT22;3556;53.500;10.176;2024-01-25T13:23:15;7.40;99.90
7030;DHT22;3556;53.500;10.176;2024-01-25T13:25:40;7.40;84.70
7030;DHT22;3556;53.500;10.176;2024-01-25T13:28:06;7.40;99.90
7030;DHT22;3556;53.500;10.176;2024-01-25T13:30:32;7.40;98.10
7030;DHT22;3556;53.500;10.176;2024-01-25T13:32:57;7.40;99.90
7030;DHT22;3556;53.500;10.176;2024-01-25T13:35:23;7.40;99.90
7030;DHT22;3556;53.500;10.176;2024-01-25T13:37:48;7.40;99.90
7030;DHT22;3556;53.500;10.176;2024-01-25T13:40:14;7.50;99.90
7030;DHT22;3556;53.500;10.176;2024-01-25T13:42:40;7.50;99.90
7030;DHT22;3556;53.500;10.176;2024-01-25T13:45:07;7.50;99.90
7030;DHT22;3556;53.500;10.176;2024-01-25T13:47:32;7.50;99.90
7030;DHT22;3556;53.500;10.176;2024-01-25T13:49:58;7.50;99.90
7030;DHT22;3556;53.500;10.176;2024-01-25T13:52:24;7.50;99.90
7030;DHT22;3556;53.500;10.176;2024-01-25T13:54:49;7.50;99.90
7030;DHT22;3556;53.500;10.176;2024-01-25T13:57:15;7.50;99.90
7030;DHT22;3556;53.500;10.176;2024-01-25T13:59:41;7.50;99.90
7030;DHT22;3556;53.500;10.176;2024-01-25T14:02:07;7.60;99.90
7030;DHT22;3556;53.500;10.176;2024-01-25T14:04:32;7.60;99.90
7030;DHT22;3556;53.500;10.176;2024-01-25T14:06:58;7.60;99.90
7030;DHT22;3556;53.500;10.176;2024-01-25T14:09:23;7.60;99.90
7030;DHT22;3556;53.500;10.176;2024-01-25T14:11:49;7.70;99.90
7030;DHT22;3556;53.500;10.176;2024-01-25T14:14:15;7.70;99.90
7030;DHT22;3556;53.500;10.176;2024-01-25T14:16:40;7.80;91.10
7030;DHT22;3556;53.500;10.176;2024-01-25T14:19:06;7.90;62.70
7030;DHT22;3556;53.500;10.176;2024-01-25T14:21:32;7.90;45.10
7030;DHT22;3556;53.500;10.176;2024-01-25T14:23:57;7.90;17.40
7030;DHT22;3556;53.500;10.176;2024-01-25T14:26:23;8.00;1.00
7030;DHT22;3556;53.500;10.176;2024-01-25T14:28:49;8.10;1.00
7030;DHT22;3556;53.500;10.176;2024-01-25T14:31:15;8.20;1.00
7030;DHT22;3556;53.500;10.176;2024-01-25T14:33:41;8.20;1.00
7030;DHT22;3556;53.500;10.176;2024-01-25T14:36:06;8.30;1.00
7030;DHT22;3556;53.500;10.176;2024-01-25T14:38:32;8.30;1.00
7030;DHT22;3556;53.500;10.176;2024-01-25T14:40:59;8.40;1.00
7030;DHT22;3556;53.500;10.176;2024-01-25T14:43:25;8.50;1.00
7030;DHT22;3556;53.500;10.176;2024-01-25T14:45:50;8.40;1.00
7030;DHT22;3556;53.500;10.176;2024-01-25T14:48:17;8.40;1.00
7030;DHT22;3556;53.500;10.176;2024-01-25T14:50:42;8.40;1.00
7030;DHT22;3556;53.500;10.176;2024-01-25T14:53:08;8.30;1.00
7030;DHT22;3556;53.500;10.176;2024-01-25T14:55:33;8.30;1.00
7030;DHT22;3556;53.500;10.176;2024-01-25T14:57:59;8.20;1.00
7030;DHT22;3556;53.500;10.176;2024-01-25T15:00:25;8.20;99.90
7030;DHT22;3556;53.500;10.176;2024-01-25T15:02:50;8.20;1.00
7030;DHT22;3556;53.500;10.176;2024-01-25T15:05:16;8.10;99.90
7030;DHT22;3556;53.500;10.176;2024-01-25T15:07:42;8.00;1.00
7030;DHT22;3556;53.500;10.176;2024-01-25T15:10:08;8.00;1.00
7030;DHT22;3556;53.500;10.176;2024-01-25T15:12:34;8.00;1.00
7030;DHT22;3556;53.500;10.176;2024-01-25T15:14:59;8.00;1.00
7030;DHT22;3556;53.500;10.176;2024-01-25T15:17:25;7.90;1.00
7030;DHT22;3556;53.500;10.176;2024-01-25T15:19:51;7.90;1.00
7030;DHT22;3556;53.500;10.176;2024-01-25T15:22:16;7.90;1.00
7030;DHT22;3556;53.500;10.176;2024-01-25T15:24:42;7.80;1.00
7030;DHT22;3556;53.500;10.176;2024-01-25T15:27:08;7.80;1.00
7030;DHT22;3556;53.500;10.176;2024-01-25T15:29:39;7.80;1.00
7030;DHT22;3556;53.500;10.176;2024-01-25T15:32:05;7.80;1.00
7030;DHT22;3556;53.500;10.176;2024-01-25T15:34:30;7.80;1.00
7030;DHT22;3556;53.500;10.176;2024-01-25T15:36:56;7.80;1.00
7030;DHT22;3556;53.500;10.176;2024-01-25T15:39:22;7.70;1.00
7030;DHT22;3556;53.500;10.176;2024-01-25T15:41:49;7.70;1.00
7030;DHT22;3556;53.500;10.176;2024-01-25T15:44:16;7.70;1.00
7030;DHT22;3556;53.500;10.176;2024-01-25T15:46:42;7.60;1.00
7030;DHT22;3556;53.500;10.176;2024-01-25T15:49:07;7.60;1.00
7030;DHT22;3556;53.500;10.176;2024-01-25T15:51:33;7.60;1.00
7030;DHT22;3556;53.500;10.176;2024-01-25T15:53:59;7.50;1.00